CheckWX is a tool to help pilots better visualize weather data.  It is not intended as a substitute for an official pre-flight weather briefing.

13:06:57 UTC

KASG METAR
Springdale Municipal Airport
Springdale, Arkansas, USA
Current

19 mins ago

KASG 181248Z 08004KT 10SM OVC023 25/24 A2998
Observed
Aug-18 @ 12:48 UTC
Wind
  • 080° at 4 KTS
Visibility
10 SM
Flight Rules
MVFR
Cloud Levels
  • Overcast at 2,300' AGL
Temperature
25°C / 77°F
Dewpoint
24°C / 75°F
Humidity
94%
Altimeter
29.98" Hg
Pressure
1015.22 hPa
Previous

1 hour ago

KASG 181148Z 00000KT 10SM CLR 24/24 A2994
Observed
Aug-18 @ 11:48 UTC
Visibility
10 SM
Flight Rules
VFR
Cloud Levels
  • Clear skies
Temperature
24°C / 75°F
Dewpoint
24°C / 75°F
Humidity
100%
Altimeter
29.94" Hg
Pressure
1013.92 hPa
Previous

2 hours ago

KASG 181048Z 18004KT 10SM CLR 25/23 A2991
Observed
Aug-18 @ 10:48 UTC
Wind
  • 180° at 4 KTS
Visibility
10 SM
Flight Rules
VFR
Cloud Levels
  • Clear skies
Temperature
25°C / 77°F
Dewpoint
23°C / 73°F
Humidity
89%
Altimeter
29.91" Hg
Pressure
1012.92 hPa